Aomori, Japan
Current Conditions -  °F | °C
As of 9:00 PM on Monday 24 Nov 2014 (Local Time) from RJSA Reporting Station
Rain Showers Rain Showers  
Wind Chill: 38°   Ceiling: 4000
Heat Index: 45°   Visibility: 6mi
Dew Point: 41°   Wind: 14mph
Humidity: 87%   Direction: 200°SSW
Pressure: 30"   Gusts: NA
Location:  40.83°N, 140.74°E
Report Text: RJSA 241200Z 20012KT 9999 -SHRA FEW015 SCT025 BKN040 07/05 Q1016
Loading
Personal Weather Stations






























Interactive Weather Map New forecast layout! Learn more

10-Day Weather Forecast

Advertisements
Track Severe Weather on mobile